Time;durP1;ratioP1;P1;durP2;ratioP2;P2;SDS_P1;SDS_P2;PMS_P1;PMS_P2;Temp;Humidity;BMP_temperature;BMP_pressure;BME280_temperature;BME280_humidity;BME280_pressure;Samples;Min_cycle;Max_cycle;Signal;HPM_P1;HPM_P2
2022/07/09 00:01:54;;;;;;;11.20;5.95;;;;;;;18.57;100.00;97383.78;5117780;27;20505;-87
2022/07/09 00:04:20;;;;;;;12.45;6.50;;;;;;;18.60;100.00;97380.78;5120481;27;20012;-88
2022/07/09 00:06:45;;;;;;;7.13;5.88;;;;;;;18.55;100.00;97372.25;5101693;28;20034;-88
2022/07/09 00:09:13;;;;;;;7.90;6.22;;;;;;;18.54;100.00;97371.41;5095409;28;20032;-86
2022/07/09 00:11:38;;;;;;;8.13;6.35;;;;;;;18.59;100.00;97370.94;5111816;28;20023;-87
2022/07/09 00:14:04;;;;;;;10.38;7.35;;;;;;;18.66;100.00;97372.91;5095381;28;21125;-86
2022/07/09 00:16:29;;;;;;;10.82;6.93;;;;;;;18.62;100.00;97365.22;5115159;27;20073;-87
2022/07/09 00:18:55;;;;;;;9.13;7.07;;;;;;;18.69;100.00;97366.34;5098489;27;20054;-87
2022/07/09 00:21:21;;;;;;;8.57;7.13;;;;;;;18.61;100.00;97358.94;5097224;28;20028;-87
2022/07/09 00:23:46;;;;;;;9.20;7.57;;;;;;;18.75;100.00;97363.88;5129585;27;20514;-87
2022/07/09 00:26:12;;;;;;;10.52;8.25;;;;;;;18.67;100.00;97350.22;5103080;28;20501;-87
2022/07/09 00:28:38;;;;;;;10.93;8.13;;;;;;;18.64;100.00;97355.94;5095163;28;20028;-87
2022/07/09 00:31:03;;;;;;;13.82;7.05;;;;;;;18.60;100.00;97359.09;5111863;28;20031;-87
2022/07/09 00:33:29;;;;;;;12.07;7.15;;;;;;;18.43;100.00;97344.44;5094918;27;20058;-87
2022/07/09 00:35:54;;;;;;;16.75;6.93;;;;;;;18.41;100.00;97346.47;5098776;28;20041;-87
2022/07/09 00:38:20;;;;;;;11.40;7.18;;;;;;;18.30;100.00;97350.19;5112242;27;20125;-86
2022/07/09 00:40:46;;;;;;;13.60;7.43;;;;;;;18.37;100.00;97353.16;5102418;28;20043;-87
2022/07/09 00:43:16;;;;;;;9.32;7.20;;;;;;;18.40;100.00;97358.28;5101527;27;20027;-86
2022/07/09 00:45:41;;;;;;;10.20;6.90;;;;;;;18.36;100.00;97349.59;5097342;27;20046;-87
2022/07/09 00:48:07;;;;;;;9.60;6.85;;;;;;;18.32;100.00;97347.34;5095440;28;20455;-87
2022/07/09 00:50:32;;;;;;;12.98;6.25;;;;;;;18.23;100.00;97340.13;5128350;27;20027;-86
2022/07/09 00:52:58;;;;;;;7.68;6.18;;;;;;;18.36;100.00;97351.47;5095522;27;20080;-87
2022/07/09 00:55:24;;;;;;;13.93;6.25;;;;;;;18.33;100.00;97359.91;5101801;28;20456;-87
2022/07/09 00:57:49;;;;;;;10.80;6.07;;;;;;;18.28;100.00;97351.34;5094355;28;20029;-87
2022/07/09 01:00:15;;;;;;;10.27;6.00;;;;;;;18.26;100.00;97347.94;5093785;28;20039;-87
2022/07/09 01:02:41;;;;;;;8.30;6.45;;;;;;;18.22;100.00;97335.69;5113823;27;20058;-87
2022/07/09 01:05:07;;;;;;;12.45;7.40;;;;;;;18.27;100.00;97341.53;5106271;27;20402;-86
2022/07/09 01:07:32;;;;;;;12.70;7.65;;;;;;;18.42;100.00;97354.47;5096298;28;20027;-86
2022/07/09 01:09:58;;;;;;;15.75;8.15;;;;;;;18.51;100.00;97350.03;5110896;28;20024;-86
2022/07/09 01:12:24;;;;;;;11.82;7.80;;;;;;;18.57;100.00;97367.53;5094149;28;20039;-87
2022/07/09 01:14:49;;;;;;;11.82;8.27;;;;;;;18.49;100.00;97349.31;5106967;27;20109;-86
2022/07/09 01:17:16;;;;;;;11.38;7.80;;;;;;;18.46;100.00;97349.56;5095139;28;20359;-87
2022/07/09 01:19:42;;;;;;;12.90;8.32;;;;;;;18.54;100.00;97357.00;5095401;27;20074;-86
2022/07/09 01:22:09;;;;;;;11.43;8.30;;;;;;;18.45;100.00;97344.31;5100573;28;20059;-87
2022/07/09 01:24:34;;;;;;;14.23;9.13;;;;;;;18.51;100.00;97358.16;5094118;28;20065;-86
2022/07/09 01:27:00;;;;;;;15.45;9.60;;;;;;;18.55;100.00;97364.97;5093594;28;20038;-86
2022/07/09 01:29:26;;;;;;;12.68;9.35;;;;;;;18.46;100.00;97343.31;5110928;28;20027;-86
2022/07/09 01:31:52;;;;;;;16.92;9.70;;;;;;;18.49;100.00;97354.72;5113541;28;20048;-86
2022/07/09 01:34:17;;;;;;;13.50;9.35;;;;;;;18.50;100.00;97353.72;5099458;28;20178;-86
2022/07/09 01:36:44;;;;;;;14.90;9.43;;;;;;;18.43;100.00;97345.31;5110818;28;20114;-86
2022/07/09 01:39:09;;;;;;;15.15;8.85;;;;;;;18.52;100.00;97354.41;5110758;28;20035;-87
2022/07/09 01:41:35;;;;;;;15.40;9.88;;;;;;;18.58;100.00;97348.41;5110309;28;20062;-86
2022/07/09 01:44:00;;;;;;;16.08;9.45;;;;;;;18.59;100.00;97360.97;5131396;27;20532;-87
2022/07/09 01:46:26;;;;;;;13.40;9.90;;;;;;;18.49;100.00;97341.19;5111653;28;20108;-87
2022/07/09 01:48:51;;;;;;;12.77;8.93;;;;;;;18.46;100.00;97337.91;5093760;28;20032;-86
2022/07/09 01:51:17;;;;;;;9.73;8.27;;;;;;;18.57;100.00;97354.84;5093883;28;20372;-87
2022/07/09 01:53:43;;;;;;;10.82;7.93;;;;;;;18.43;100.00;97339.03;5110436;28;20042;-86
2022/07/09 01:56:09;;;;;;;12.15;8.10;;;;;;;18.49;100.00;97353.84;5101602;28;20035;-87
2022/07/09 01:58:35;;;;;;;12.05;8.35;;;;;;;18.39;100.00;97338.47;5096837;28;20029;-86
2022/07/09 02:01:01;;;;;;;10.13;8.27;;;;;;;18.43;100.00;97331.75;5096823;28;20483;-86
2022/07/09 02:03:27;;;;;;;11.88;8.65;;;;;;;18.37;100.00;97328.78;5109420;28;20039;-86
2022/07/09 02:05:53;;;;;;;11.98;9.20;;;;;;;18.16;100.00;97304.66;5100470;28;20033;-86
2022/07/09 02:08:18;;;;;;;16.38;9.57;;;;;;;18.15;100.00;97330.00;5110669;28;20031;-86
2022/07/09 02:10:45;;;;;;;11.75;9.05;;;;;;;18.23;100.00;97346.38;5093394;28;20023;-86
2022/07/09 02:13:12;;;;;;;13.38;9.43;;;;;;;18.23;100.00;97343.69;5099972;27;20627;-86
2022/07/09 02:15:39;;;;;;;12.98;8.80;;;;;;;18.05;100.00;97333.75;5110615;28;20038;-86
2022/07/09 02:18:05;;;;;;;11.82;8.82;;;;;;;18.19;100.00;97363.06;5097614;28;20031;-85
2022/07/09 02:20:32;;;;;;;13.07;8.73;;;;;;;18.20;100.00;97368.34;5097443;28;20061;-86
2022/07/09 02:22:58;;;;;;;11.98;8.93;;;;;;;18.15;100.00;97350.84;5098894;27;20073;-85
2022/07/09 02:25:23;;;;;;;11.90;9.05;;;;;;;18.17;100.00;97346.13;5104518;27;20545;-87
2022/07/09 02:27:49;;;;;;;14.05;8.68;;;;;;;18.28;100.00;97344.09;5116095;27;20027;-85
2022/07/09 02:30:14;;;;;;;13.85;9.50;;;;;;;18.31;100.00;97353.75;5088569;28;20028;-85
2022/07/09 02:32:40;;;;;;;13.18;8.57;;;;;;;18.32;100.00;97352.78;5099403;27;20115;-85
2022/07/09 02:35:06;;;;;;;14.23;9.15;;;;;;;18.31;100.00;97341.06;5101273;28;20035;-86
2022/07/09 02:37:32;;;;;;;12.15;8.00;;;;;;;18.34;100.00;97345.34;5115371;27;20020;-86
2022/07/09 02:39:58;;;;;;;15.70;9.48;;;;;;;18.44;100.00;97354.28;5100117;27;20131;-86
2022/07/09 02:42:24;;;;;;;15.07;9.32;;;;;;;18.49;100.00;97364.69;5100031;28;20486;-87
2022/07/09 02:44:49;;;;;;;16.80;9.70;;;;;;;18.47;100.00;97347.72;5096899;28;20012;-86
2022/07/09 02:47:15;;;;;;;13.80;9.10;;;;;;;18.54;100.00;97362.41;5099717;27;20034;-85
2022/07/09 02:49:41;;;;;;;15.73;9.52;;;;;;;18.50;100.00;97359.16;5130138;27;20019;-86
2022/07/09 02:52:06;;;;;;;11.68;8.60;;;;;;;18.45;100.00;97355.16;5115726;27;20487;-86
2022/07/09 02:54:33;;;;;;;14.57;9.60;;;;;;;18.45;100.00;97353.31;5096521;28;20080;-86
2022/07/09 02:56:59;;;;;;;12.63;9.93;;;;;;;18.41;100.00;97347.31;5096893;28;20047;-86
2022/07/09 02:59:25;;;;;;;11.73;9.57;;;;;;;18.50;100.00;97347.44;5130953;27;20019;-85
2022/07/09 03:01:51;;;;;;;15.77;9.85;;;;;;;18.46;100.00;97348.75;5098938;27;20031;-86
2022/07/09 03:04:17;;;;;;;13.88;9.52;;;;;;;18.50;100.00;97356.44;5117092;27;20080;-86
2022/07/09 03:06:49;;;;;;;14.75;9.75;;;;;;;18.42;100.00;97337.34;5099672;27;20038;-86
2022/07/09 03:09:14;;;;;;;14.73;10.00;;;;;;;18.41;100.00;97335.63;5098329;28;20034;-86
2022/07/09 03:11:40;;;;;;;12.68;10.48;;;;;;;18.45;100.00;97352.44;5096027;28;20410;-86
2022/07/09 03:14:06;;;;;;;13.50;9.38;;;;;;;18.37;100.00;97353.16;5096181;28;20450;-86
2022/07/09 03:16:32;;;;;;;12.85;9.43;;;;;;;18.25;100.00;97330.84;5096452;28;20373;-86
2022/07/09 03:18:57;;;;;;;10.75;8.65;;;;;;;18.22;100.00;97343.81;5113445;28;20081;-86
2022/07/09 03:21:23;;;;;;;13.25;8.88;;;;;;;18.21;100.00;97345.66;5116119;27;20031;-86
2022/07/09 03:23:49;;;;;;;15.15;8.98;;;;;;;18.33;100.00;97363.44;5120437;27;20027;-77
2022/07/09 03:26:14;;;;;;;10.27;8.63;;;;;;;18.28;100.00;97352.19;5115890;27;20107;-80
2022/07/09 03:28:40;;;;;;;10.90;8.90;;;;;;;18.30;100.00;97362.91;5102581;28;20035;-79
2022/07/09 03:31:05;;;;;;;12.52;7.78;;;;;;;18.31;100.00;97368.16;5095464;28;20532;-79
2022/07/09 03:33:31;;;;;;;10.38;7.70;;;;;;;18.27;100.00;97360.50;5095404;28;20435;-79
2022/07/09 03:35:56;;;;;;;12.30;8.32;;;;;;;18.14;100.00;97355.41;5095334;28;20410;-79
2022/07/09 03:38:23;;;;;;;8.40;7.38;;;;;;;18.22;100.00;97362.75;5095194;28;20498;-78
2022/07/09 03:40:49;;;;;;;12.40;7.40;;;;;;;18.21;100.00;97367.31;5130092;27;20043;-78
2022/07/09 03:43:14;;;;;;;9.68;6.82;;;;;;;18.21;100.00;97361.09;5098442;28;20035;-78
2022/07/09 03:45:40;;;;;;;7.78;6.70;;;;;;;18.23;100.00;97354.50;5107034;27;20129;-78
2022/07/09 03:48:06;;;;;;;6.95;6.18;;;;;;;18.23;100.00;97368.06;5126053;27;20102;-79
2022/07/09 03:50:32;;;;;;;9.13;6.47;;;;;;;18.24;100.00;97367.03;5149164;27;20035;-79
2022/07/09 03:52:57;;;;;;;11.32;5.78;;;;;;;18.28;100.00;97370.31;5096280;28;20050;-79
2022/07/09 03:55:23;;;;;;;7.53;6.35;;;;;;;18.24;100.00;97355.38;5113320;27;20031;-78
2022/07/09 03:57:50;;;;;;;7.90;6.75;;;;;;;18.47;100.00;97367.53;5127656;27;20031;-79
2022/07/09 04:00:16;;;;;;;10.10;7.20;;;;;;;18.48;100.00;97355.72;5112082;28;20104;-79
2022/07/09 04:02:41;;;;;;;10.55;8.05;;;;;;;18.51;100.00;97358.16;5120311;27;20454;-79
2022/07/09 04:05:08;;;;;;;10.70;7.82;;;;;;;18.65;100.00;97375.75;5111622;28;20487;-80
2022/07/09 04:07:34;;;;;;;15.18;8.45;;;;;;;18.62;100.00;97365.22;5095719;27;20131;-79
2022/07/09 04:10:00;;;;;;;13.70;7.80;;;;;;;18.67;100.00;97371.06;5122084;27;20063;-79
2022/07/09 04:12:26;;;;;;;13.70;8.40;;;;;;;18.67;100.00;97369.19;5097995;27;20062;-80
2022/07/09 04:14:51;;;;;;;9.52;8.07;;;;;;;18.74;100.00;97362.19;5122512;27;20031;-79
2022/07/09 04:17:17;;;;;;;9.48;7.60;;;;;;;18.79;100.00;97372.56;5092838;28;20028;-81
2022/07/09 04:19:42;;;;;;;10.48;7.32;;;;;;;18.81;100.00;97375.97;5111441;27;20027;-81
2022/07/09 04:22:08;;;;;;;8.57;7.45;;;;;;;18.93;100.00;97381.06;5116371;27;20038;-81
2022/07/09 04:24:33;;;;;;;12.50;6.60;;;;;;;18.95;100.00;97373.63;5090821;27;20035;-80
2022/07/09 04:26:59;;;;;;;6.80;6.10;;;;;;;18.92;100.00;97373.91;5097143;27;20413;-80
2022/07/09 04:29:24;;;;;;;10.77;6.32;;;;;;;19.01;100.00;97379.47;5093296;28;20418;-81
2022/07/09 04:31:50;;;;;;;11.63;7.22;;;;;;;19.11;100.00;97380.22;5093717;28;20079;-80
2022/07/09 04:34:16;;;;;;;16.33;8.38;;;;;;;19.13;100.00;97381.81;5109978;28;20115;-81
2022/07/09 04:36:41;;;;;;;9.68;7.65;;;;;;;19.19;100.00;97380.34;5127460;27;20023;-80
2022/07/09 04:39:07;;;;;;;10.82;8.00;;;;;;;19.25;100.00;97388.72;5127747;27;20028;-81
2022/07/09 04:41:34;;;;;;;16.45;8.93;;;;;;;19.24;100.00;97378.88;5127367;27;20533;-80
2022/07/09 04:43:59;;;;;;;10.02;7.22;;;;;;;19.29;100.00;97381.97;5112051;27;20042;-80
2022/07/09 04:46:26;;;;;;;8.90;5.80;;;;;;;19.26;100.00;97382.28;5114321;27;20023;-80
2022/07/09 04:48:52;;;;;;;7.13;6.28;;;;;;;19.30;100.00;97378.25;5093567;28;20024;-79
2022/07/09 04:51:27;;;;;;;6.13;5.53;;;;;;;19.32;100.00;97376.25;5127139;27;20038;-79
2022/07/09 04:53:53;;;;;;;9.30;6.82;;;;;;;19.40;100.00;97389.94;5092931;28;20032;-79
2022/07/09 04:56:18;;;;;;;10.80;6.43;;;;;;;19.40;100.00;97389.09;5127330;27;20437;-79
2022/07/09 04:58:51;;;;;;;7.82;6.15;;;;;;;19.36;100.00;97385.78;5111615;28;20027;-79
2022/07/09 05:01:20;;;;;;;6.40;5.57;;;;;;;19.23;100.00;97379.00;5110702;27;20024;-80
2022/07/09 05:03:46;;;;;;;6.47;5.75;;;;;;;19.38;100.00;97388.38;5108418;28;20026;-80
2022/07/09 05:06:15;;;;;;;7.57;5.97;;;;;;;19.42;100.00;97387.06;5120130;27;20402;-79
2022/07/09 05:08:41;;;;;;;9.15;5.53;;;;;;;19.44;100.00;97380.47;5109833;28;20151;-80
2022/07/09 05:11:07;;;;;;;8.00;6.35;;;;;;;19.31;100.00;97384.53;5092698;28;20055;-79
2022/07/09 05:13:32;;;;;;;9.98;5.78;;;;;;;19.24;100.00;97383.44;5092839;28;20034;-80
2022/07/09 05:15:58;;;;;;;9.48;6.70;;;;;;;19.26;100.00;97382.28;5092920;28;20042;-79
2022/07/09 05:18:24;;;;;;;9.98;6.40;;;;;;;19.24;100.00;97388.88;5110109;28;20102;-79
2022/07/09 05:20:49;;;;;;;10.77;6.10;;;;;;;19.22;100.00;97380.91;5093441;28;20035;-89
2022/07/09 05:23:15;;;;;;;13.40;5.70;;;;;;;19.27;100.00;97378.56;5094041;28;20114;-85
2022/07/09 05:25:40;;;;;;;7.05;5.72;;;;;;;19.38;100.00;97388.38;5093370;28;20028;-80
2022/07/09 05:28:06;;;;;;;12.20;7.30;;;;;;;19.36;100.00;97390.34;5129348;27;20095;-78
2022/07/09 05:30:36;;;;;;;9.35;5.50;;;;;;;19.40;100.00;97389.94;5112928;28;20024;-79
2022/07/09 05:33:03;;;;;;;17.02;6.18;;;;;;;19.54;100.00;97391.25;5095887;28;20055;-79
2022/07/09 05:35:29;;;;;;;10.38;7.53;;;;;;;19.58;100.00;97397.22;5098739;28;20084;-79
2022/07/09 05:37:55;;;;;;;6.03;5.40;;;;;;;19.56;100.00;97399.25;5093664;28;20031;-80
2022/07/09 05:40:20;;;;;;;11.02;6.35;;;;;;;19.54;100.00;97391.25;5116957;28;20055;-80
2022/07/09 05:42:46;;;;;;;7.07;5.65;;;;;;;19.35;100.00;97396.78;5092393;28;20027;-80
2022/07/09 05:45:12;;;;;;;14.63;5.32;;;;;;;19.41;100.00;97398.94;5108694;28;20106;-79
2022/07/09 05:47:38;;;;;;;11.07;5.10;;;;;;;19.48;100.00;97400.88;5100525;28;20023;-78
2022/07/09 05:50:04;;;;;;;6.25;4.07;;;;;;;19.40;100.00;97389.09;5096659;28;20076;-79
2022/07/09 05:52:30;;;;;;;7.55;4.90;;;;;;;19.42;100.00;97396.06;5096578;28;20481;-78
2022/07/09 05:54:55;;;;;;;9.50;5.10;;;;;;;19.45;100.00;97397.59;5112329;28;20058;-78
2022/07/09 05:57:21;;;;;;;7.38;4.57;;;;;;;19.51;100.00;97410.56;5131552;27;20205;-79
2022/07/09 05:59:46;;;;;;;7.13;5.43;;;;;;;19.42;100.00;97406.06;5100417;28;20126;-80
2022/07/09 06:02:12;;;;;;;4.50;4.10;;;;;;;19.42;100.00;97404.19;5112958;28;20035;-78
2022/07/09 06:04:38;;;;;;;5.00;4.18;;;;;;;19.43;100.00;97399.63;5126195;27;20419;-78
2022/07/09 06:07:04;;;;;;;6.25;4.10;;;;;;;19.51;100.00;97402.41;5095989;28;20040;-78
2022/07/09 06:09:29;;;;;;;4.93;4.03;;;;;;;19.57;100.00;97404.50;5131153;27;20478;-85
2022/07/09 06:11:55;;;;;;;4.50;4.10;;;;;;;19.61;100.00;97408.63;5102886;28;20050;-83
2022/07/09 06:14:20;;;;;;;8.95;4.82;;;;;;;19.50;100.00;97410.72;5099579;27;20027;-83
2022/07/09 06:16:47;;;;;;;6.63;5.82;;;;;;;19.37;100.00;97405.63;5101547;28;20646;-81
2022/07/09 06:19:13;;;;;;;8.38;5.95;;;;;;;19.49;100.00;97412.59;5111548;27;20077;-81
2022/07/09 06:21:39;;;;;;;9.40;5.68;;;;;;;19.41;100.00;97417.94;5114450;27;20015;-81
2022/07/09 06:24:05;;;;;;;6.05;4.78;;;;;;;19.34;100.00;97416.78;5095887;28;20028;-81
2022/07/09 06:26:31;;;;;;;8.10;5.75;;;;;;;19.28;100.00;97403.84;5099303;27;20063;-81
2022/07/09 06:28:57;;;;;;;8.18;5.20;;;;;;;19.31;100.00;97411.66;5113231;27;20043;-79
2022/07/09 06:31:23;;;;;;;6.00;4.90;;;;;;;19.34;100.00;97414.09;5110314;28;20508;-80
2022/07/09 06:33:49;;;;;;;5.10;4.60;;;;;;;19.38;100.00;97410.88;5118563;27;20030;-80
2022/07/09 06:36:14;;;;;;;5.40;4.55;;;;;;;19.36;100.00;97406.63;5099351;27;20501;-79
2022/07/09 06:41:24;;;;;;;13.45;5.90;;;;;;;19.25;100.00;97404.16;5115936;27;20427;-80
2022/07/09 06:43:49;;;;;;;10.68;6.15;;;;;;;19.40;100.00;97405.38;5119304;27;20023;-80
2022/07/09 06:46:15;;;;;;;8.77;5.18;;;;;;;19.49;100.00;97420.72;5095915;28;20051;-80
2022/07/09 06:48:40;;;;;;;9.30;5.22;;;;;;;19.41;100.00;97423.34;5097006;28;20023;-79
2022/07/09 06:51:06;;;;;;;19.98;6.28;;;;;;;19.41;100.00;97428.78;5112695;28;20055;-79
2022/07/09 06:53:32;;;;;;;23.83;6.63;;;;;;;19.32;100.00;97419.63;5095375;28;20112;-78
2022/07/09 06:55:57;;;;;;;12.05;6.43;;;;;;;19.32;100.00;97426.91;5095705;28;20019;-79
2022/07/09 06:58:23;;;;;;;8.95;6.28;;;;;;;19.28;100.00;97433.69;5111783;28;20027;-79
2022/07/09 07:00:48;;;;;;;9.77;7.75;;;;;;;19.14;100.00;97426.88;5103224;28;20542;-85
2022/07/09 07:03:15;;;;;;;8.07;6.50;;;;;;;19.32;100.00;97440.47;5129969;27;20467;-87
2022/07/09 07:05:41;;;;;;;7.35;5.70;;;;;;;19.14;100.00;97436.88;5130082;27;20131;-85
2022/07/09 07:08:08;;;;;;;9.68;7.97;;;;;;;19.20;100.00;97436.28;5096062;28;20084;-86
2022/07/09 07:10:33;;;;;;;9.55;7.07;;;;;;;19.13;100.00;97440.63;5095913;28;20411;-87
2022/07/09 07:12:59;;;;;;;10.95;7.75;;;;;;;19.03;100.00;97428.94;5095605;28;20032;-86
2022/07/09 07:15:24;;;;;;;10.80;8.52;;;;;;;18.82;100.00;97421.94;5095868;28;20042;-87
2022/07/09 07:17:50;;;;;;;16.27;8.57;;;;;;;18.95;100.00;97435.09;5095626;28;20038;-87
2022/07/09 07:20:19;;;;;;;12.20;8.68;;;;;;;18.94;100.00;97434.28;5130325;27;20030;-87
2022/07/09 07:22:45;;;;;;;9.90;8.80;;;;;;;18.81;100.00;97432.91;5111014;27;20505;-80
2022/07/09 07:25:10;;;;;;;16.63;9.32;;;;;;;18.88;100.00;97442.16;5092497;28;20089;-81
2022/07/09 07:27:36;;;;;;;12.75;9.43;;;;;;;18.96;100.00;97447.66;5094776;27;20032;-80
2022/07/09 07:30:02;;;;;;;10.30;8.52;;;;;;;18.90;100.00;97435.56;5092992;28;20062;-83
2022/07/09 07:32:28;;;;;;;10.18;8.45;;;;;;;19.09;100.00;97441.91;5126375;27;20035;-84
2022/07/09 07:34:53;;;;;;;12.85;8.73;;;;;;;18.76;100.00;97430.66;5091676;28;20456;-84
2022/07/09 07:37:19;;;;;;;14.25;9.60;;;;;;;18.83;100.00;97439.88;5126180;27;20111;-83
2022/07/09 07:39:47;;;;;;;19.00;10.10;;;;;;;18.97;100.00;97441.25;5093411;27;20043;-82
2022/07/09 07:42:13;;;;;;;11.77;9.27;;;;;;;18.94;100.00;97442.41;5097289;28;20019;-82
2022/07/09 07:44:39;;;;;;;11.63;8.82;;;;;;;19.01;100.00;97449.94;5125856;27;20037;-83
2022/07/09 07:47:04;;;;;;;10.07;8.77;;;;;;;19.06;100.00;97439.50;5091694;28;20049;-83
2022/07/09 07:49:30;;;;;;;9.77;8.30;;;;;;;19.15;100.00;97444.03;5126244;27;20494;-84
2022/07/09 07:51:55;;;;;;;11.70;9.23;;;;;;;19.17;100.00;97442.84;5108979;28;20036;-84
2022/07/09 07:54:21;;;;;;;12.13;9.68;;;;;;;19.25;100.00;97439.41;5092546;28;20020;-84
2022/07/09 07:56:46;;;;;;;13.68;9.63;;;;;;;19.35;100.00;97445.59;5092179;28;20027;-84
2022/07/09 07:59:12;;;;;;;13.27;10.05;;;;;;;19.30;100.00;97448.78;5095611;27;20033;-84
2022/07/09 08:01:38;;;;;;;13.27;9.93;;;;;;;19.23;100.00;97441.41;5112743;27;20047;-83
2022/07/09 08:04:03;;;;;;;10.32;8.73;;;;;;;19.19;100.00;97445.44;5093830;27;20530;-83
2022/07/09 08:06:29;;;;;;;11.70;10.40;;;;;;;19.22;100.00;97445.13;5095886;28;20829;-84
2022/07/09 08:08:55;;;;;;;11.23;9.88;;;;;;;19.03;100.00;97450.66;5091311;28;20027;-80
2022/07/09 08:11:20;;;;;;;12.68;9.70;;;;;;;19.25;100.00;97455.69;5091145;28;20115;-82
2022/07/09 08:13:46;;;;;;;12.13;10.02;;;;;;;19.28;100.00;97453.53;5091399;28;20403;-83
2022/07/09 08:16:12;;;;;;;14.48;10.23;;;;;;;19.06;100.00;97447.63;5092568;28;20027;-83
2022/07/09 08:18:37;;;;;;;14.00;10.68;;;;;;;19.05;100.00;97456.75;5091918;28;20032;-82
2022/07/09 08:21:03;;;;;;;14.20;9.98;;;;;;;19.07;100.00;97446.63;5092282;28;20465;-82
2022/07/09 08:23:28;;;;;;;13.25;11.52;;;;;;;19.17;100.00;97445.56;5092680;28;20023;-82
2022/07/09 08:25:54;;;;;;;12.65;10.00;;;;;;;19.10;100.00;97446.34;5094851;27;20073;-81
2022/07/09 08:28:20;;;;;;;14.55;11.88;;;;;;;18.99;100.00;97449.22;5096167;27;20086;-82
2022/07/09 08:30:45;;;;;;;13.73;11.52;;;;;;;18.93;100.00;97456.09;5094217;28;20053;-81
2022/07/09 08:33:11;;;;;;;16.20;11.52;;;;;;;18.91;100.00;97453.56;5094821;27;20054;-82
2022/07/09 08:35:36;;;;;;;18.42;14.13;;;;;;;18.84;100.00;97447.00;5095491;28;20027;-83
2022/07/09 08:38:02;;;;;;;15.02;12.60;;;;;;;18.76;100.00;97456.91;5095866;27;20029;-82
2022/07/09 08:40:28;;;;;;;15.48;12.77;;;;;;;18.80;100.00;97461.00;5092954;28;20039;-80
2022/07/09 08:42:54;;;;;;;15.05;12.30;;;;;;;18.85;100.00;97461.44;5109038;27;20039;-82
2022/07/09 08:45:20;;;;;;;13.65;11.18;;;;;;;18.88;100.00;97451.16;5093518;28;20035;-81
2022/07/09 08:47:46;;;;;;;17.67;11.32;;;;;;;18.84;100.00;97451.56;5107623;28;20031;-81
2022/07/09 08:50:12;;;;;;;15.90;11.50;;;;;;;18.70;100.00;97457.50;5090568;28;20369;-81
2022/07/09 08:52:39;;;;;;;14.80;9.73;;;;;;;18.68;100.00;97452.19;5090670;28;20083;-79
2022/07/09 08:55:07;;;;;;;14.55;11.93;;;;;;;18.74;100.00;97462.44;5090193;28;20030;-81
2022/07/09 08:57:33;;;;;;;14.98;11.85;;;;;;;18.76;100.00;97452.34;5090933;28;20024;-81
2022/07/09 09:00:03;;;;;;;19.63;11.98;;;;;;;18.87;100.00;97448.56;5090464;28;20031;-81
2022/07/09 09:02:35;;;;;;;15.80;12.55;;;;;;;19.08;100.00;97462.75;5090967;28;20028;-81
2022/07/09 09:05:05;;;;;;;19.30;14.05;;;;;;;18.92;100.00;97457.97;5099144;28;20038;-82
2022/07/09 09:07:31;;;;;;;11.10;9.93;;;;;;;18.73;100.00;97466.19;5094014;27;20384;-81
2022/07/09 09:09:56;;;;;;;17.80;11.68;;;;;;;18.85;100.00;97458.72;5111980;27;20023;-83
2022/07/09 09:12:28;;;;;;;13.90;10.82;;;;;;;18.87;100.00;97462.13;5090286;28;20475;-82
2022/07/09 09:14:53;;;;;;;14.70;10.30;;;;;;;18.88;100.00;97464.69;5090710;28;20104;-82
2022/07/09 09:17:19;;;;;;;17.02;10.38;;;;;;;18.86;100.00;97471.25;5089614;28;20060;-82
2022/07/09 09:19:44;;;;;;;13.00;10.13;;;;;;;18.91;100.00;97464.41;5093965;27;20027;-83
2022/07/09 09:22:10;;;;;;;19.80;11.38;;;;;;;19.02;100.00;97471.47;5090724;27;20043;-82
2022/07/09 09:24:35;;;;;;;15.85;11.80;;;;;;;19.08;100.00;97475.44;5095580;27;20410;-78
2022/07/09 09:27:02;;;;;;;21.15;12.73;;;;;;;19.12;100.00;97466.00;5095443;28;20454;-83
2022/07/09 09:29:28;;;;;;;18.48;11.18;;;;;;;19.24;100.00;97478.38;5100979;28;20106;-82
2022/07/09 09:31:54;;;;;;;12.50;9.93;;;;;;;19.33;100.00;97486.47;5098150;28;20023;-82
2022/07/09 09:34:21;;;;;;;12.95;11.10;;;;;;;19.27;100.00;97480.78;5099115;28;20030;-82
2022/07/09 09:36:51;;;;;;;12.13;9.93;;;;;;;19.32;100.00;97481.16;5095879;28;20017;-83
2022/07/09 09:39:26;;;;;;;14.52;9.88;;;;;;;19.31;100.00;97479.50;5094601;28;20107;-83
2022/07/09 09:41:58;;;;;;;12.13;9.30;;;;;;;19.40;100.00;97478.63;5129525;28;20043;-83
2022/07/09 09:44:37;;;;;;;11.43;9.45;;;;;;;19.23;100.00;97480.22;5111070;28;20106;-84
2022/07/09 09:47:04;;;;;;;11.90;9.40;;;;;;;19.37;100.00;97470.75;5105263;28;20442;-84
2022/07/09 09:49:30;;;;;;;12.10;9.20;;;;;;;19.46;100.00;97489.72;5118035;27;20407;-83
2022/07/09 09:52:09;;;;;;;18.33;11.23;;;;;;;19.39;100.00;97490.44;5095780;28;20027;-81
2022/07/09 09:54:39;;;;;;;14.98;10.77;;;;;;;19.44;100.00;97482.75;5128890;28;20030;-79
2022/07/09 09:57:06;;;;;;;17.60;11.82;;;;;;;19.51;100.00;97475.69;5092165;28;20028;-79
2022/07/09 09:59:34;;;;;;;13.70;11.27;;;;;;;19.71;100.00;97474.56;5091730;28;20026;-79
2022/07/09 10:02:02;;;;;;;15.82;12.52;;;;;;;19.73;100.00;97467.13;5103118;28;20508;-79
2022/07/09 10:04:28;;;;;;;14.48;10.82;;;;;;;19.87;100.00;97469.28;5111948;28;20034;-80
2022/07/09 10:06:54;;;;;;;11.52;10.15;;;;;;;19.83;100.00;97481.47;5111387;28;20020;-80
2022/07/09 10:09:20;;;;;;;11.70;10.27;;;;;;;19.75;100.00;97470.50;5095314;28;20028;-78
2022/07/09 10:11:47;;;;;;;33.20;23.10;;;;;;;19.78;100.00;97475.63;5095742;28;20023;-80
2022/07/09 10:14:28;;;;;;;11.95;10.75;;;;;;;19.70;100.00;97477.41;5109012;28;20456;-78
2022/07/09 10:16:54;;;;;;;23.95;13.52;;;;;;;19.75;100.00;97469.69;5110434;28;20031;-77
2022/07/09 10:19:29;;;;;;;14.93;10.88;;;;;;;20.17;100.00;97467.19;5095787;28;20471;-82
2022/07/09 10:21:57;;;;;;;12.95;9.30;;;;;;;20.61;100.00;97468.91;5092875;28;20409;-77
2022/07/09 10:24:30;;;;;;;10.18;8.95;;;;;;;20.06;100.00;97457.41;5093444;28;20023;-77
2022/07/09 10:27:06;;;;;;;12.27;10.10;;;;;;;19.89;100.00;97470.00;5125705;27;20480;-81
2022/07/09 10:29:59;;;;;;;14.55;10.50;;;;;;;20.02;100.00;97467.75;5109504;28;20451;-82
2022/07/09 10:32:30;;;;;;;14.77;9.43;;;;;;;19.70;100.00;97462.00;5092214;28;20035;-80
2022/07/09 10:35:05;;;;;;;11.05;9.75;;;;;;;19.62;100.00;97467.34;5099093;27;20027;-80
2022/07/09 10:37:38;;;;;;;11.13;9.50;;;;;;;19.85;100.00;97454.16;5098656;27;20038;-79
2022/07/09 10:40:10;;;;;;;;;;;;;;;20.49;100.00;97464.75;5118193;27;20054;-80
2022/07/09 10:42:36;;;;;;;10.95;8.38;;;;;;;21.35;100.00;97457.50;5113819;27;19912;-80
2022/07/09 10:45:02;;;;;;;13.93;7.50;;;;;;;21.58;100.00;97458.59;5099031;27;20054;-79
2022/07/09 10:47:40;;;;;;;8.45;7.50;;;;;;;22.03;100.00;97459.03;5101583;27;20113;-77
2022/07/09 10:50:07;;;;;;;10.05;7.13;;;;;;;22.07;100.00;97457.69;5100344;28;20030;-77
2022/07/09 10:52:34;;;;;;;11.25;8.10;;;;;;;22.13;100.00;97457.03;5114038;27;20023;-76
2022/07/09 10:54:59;;;;;;;11.52;8.20;;;;;;;22.04;100.00;97454.47;5122612;27;20514;-77
2022/07/09 10:57:25;;;;;;;8.65;7.65;;;;;;;22.07;100.00;97444.06;5112761;27;20031;-79
2022/07/09 10:59:50;;;;;;;9.18;8.00;;;;;;;22.09;100.00;97457.50;5115314;27;20031;-77
2022/07/09 11:02:21;;;;;;;8.90;7.47;;;;;;;22.25;100.00;97465.72;5097973;28;20023;-76
2022/07/09 11:04:51;;;;;;;8.27;7.32;;;;;;;22.16;100.00;97458.56;5095662;27;20066;-76
2022/07/09 11:07:24;;;;;;;9.05;7.28;;;;;;;22.00;100.00;97456.66;5099244;28;20494;-76
2022/07/09 11:09:51;;;;;;;8.30;7.25;;;;;;;21.53;100.00;97450.06;5109701;28;20051;-76
2022/07/09 11:12:21;;;;;;;14.00;7.70;;;;;;;21.87;100.00;97458.16;5112789;28;20500;-76
2022/07/09 11:14:50;;;;;;;8.13;7.32;;;;;;;21.81;100.00;97448.75;5115451;27;20072;-77
2022/07/09 11:17:17;;;;;;;9.10;7.53;;;;;;;21.30;100.00;97438.06;5095486;28;20019;-76
2022/07/09 11:19:43;;;;;;;12.75;8.18;;;;;;;21.49;100.00;97446.81;5105346;27;20027;-76